sensor_id;sensor_type;location;lat;lon;timestamp;P1;durP1;ratioP1;P2;durP2;ratioP2
16862;SDS011;52193;48.216;-1.698;2023-04-12T00:00:06;178.40;;;169.07;;
16862;SDS011;52193;48.216;-1.698;2023-04-12T00:02:36;173.18;;;164.02;;
16862;SDS011;52193;48.216;-1.698;2023-04-12T00:05:04;167.52;;;158.85;;
16862;SDS011;52193;48.216;-1.698;2023-04-12T00:07:33;170.50;;;161.60;;
16862;SDS011;52193;48.216;-1.698;2023-04-12T00:10:04;172.05;;;163.10;;
16862;SDS011;52193;48.216;-1.698;2023-04-12T00:12:32;175.20;;;166.18;;
16862;SDS011;52193;48.216;-1.698;2023-04-12T00:14:59;175.93;;;166.63;;
16862;SDS011;52193;48.216;-1.698;2023-04-12T00:17:26;176.38;;;167.38;;
16862;SDS011;52193;48.216;-1.698;2023-04-12T00:19:53;176.27;;;167.27;;
16862;SDS011;52193;48.216;-1.698;2023-04-12T00:22:20;177.32;;;168.23;;
16862;SDS011;52193;48.216;-1.698;2023-04-12T00:24:47;177.15;;;168.05;;
16862;SDS011;52193;48.216;-1.698;2023-04-12T00:27:15;175.85;;;166.85;;
16862;SDS011;52193;48.216;-1.698;2023-04-12T00:29:42;173.98;;;164.55;;
16862;SDS011;52193;48.216;-1.698;2023-04-12T00:32:09;176.45;;;167.40;;
16862;SDS011;52193;48.216;-1.698;2023-04-12T00:34:36;179.20;;;170.00;;
16862;SDS011;52193;48.216;-1.698;2023-04-12T00:37:03;185.52;;;175.85;;
16862;SDS011;52193;48.216;-1.698;2023-04-12T00:39:30;180.98;;;171.77;;
16862;SDS011;52193;48.216;-1.698;2023-04-12T00:41:58;181.77;;;172.48;;
16862;SDS011;52193;48.216;-1.698;2023-04-12T00:44:30;183.60;;;174.40;;
16862;SDS011;52193;48.216;-1.698;2023-04-12T00:46:58;184.45;;;175.20;;
16862;SDS011;52193;48.216;-1.698;2023-04-12T00:49:26;188.02;;;178.57;;
16862;SDS011;52193;48.216;-1.698;2023-04-12T00:51:55;187.32;;;177.82;;
16862;SDS011;52193;48.216;-1.698;2023-04-12T00:54:28;184.35;;;175.18;;
16862;SDS011;52193;48.216;-1.698;2023-04-12T00:56:56;180.65;;;171.25;;
16862;SDS011;52193;48.216;-1.698;2023-04-12T00:59:23;186.77;;;177.45;;
16862;SDS011;52193;48.216;-1.698;2023-04-12T01:01:51;184.75;;;175.50;;
16862;SDS011;52193;48.216;-1.698;2023-04-12T01:04:19;187.57;;;178.07;;
16862;SDS011;52193;48.216;-1.698;2023-04-12T01:06:51;192.63;;;182.93;;
16862;SDS011;52193;48.216;-1.698;2023-04-12T01:09:30;190.88;;;181.18;;
16862;SDS011;52193;48.216;-1.698;2023-04-12T01:12:03;192.57;;;183.15;;
16862;SDS011;52193;48.216;-1.698;2023-04-12T01:14:45;188.25;;;178.77;;
16862;SDS011;52193;48.216;-1.698;2023-04-12T01:17:22;174.98;;;165.80;;
16862;SDS011;52193;48.216;-1.698;2023-04-12T01:19:55;175.90;;;166.95;;
16862;SDS011;52193;48.216;-1.698;2023-04-12T01:22:42;180.35;;;171.13;;
16862;SDS011;52193;48.216;-1.698;2023-04-12T01:25:36;180.98;;;171.77;;
16862;SDS011;52193;48.216;-1.698;2023-04-12T01:28:07;183.70;;;174.40;;
16862;SDS011;52193;48.216;-1.698;2023-04-12T01:30:36;181.98;;;172.48;;
16862;SDS011;52193;48.216;-1.698;2023-04-12T01:33:05;177.10;;;167.95;;
16862;SDS011;52193;48.216;-1.698;2023-04-12T01:35:33;182.02;;;172.85;;
16862;SDS011;52193;48.216;-1.698;2023-04-12T01:38:00;180.75;;;171.25;;
16862;SDS011;52193;48.216;-1.698;2023-04-12T01:40:27;184.82;;;175.48;;
16862;SDS011;52193;48.216;-1.698;2023-04-12T01:43:06;176.75;;;167.68;;
16862;SDS011;52193;48.216;-1.698;2023-04-12T01:45:34;181.70;;;172.52;;
16862;SDS011;52193;48.216;-1.698;2023-04-12T01:48:01;178.07;;;169.07;;
16862;SDS011;52193;48.216;-1.698;2023-04-12T01:50:32;177.95;;;168.85;;
16862;SDS011;52193;48.216;-1.698;2023-04-12T01:53:04;176.50;;;167.45;;
16862;SDS011;52193;48.216;-1.698;2023-04-12T01:55:36;176.50;;;167.60;;
16862;SDS011;52193;48.216;-1.698;2023-04-12T01:58:06;177.32;;;168.30;;
16862;SDS011;52193;48.216;-1.698;2023-04-12T02:00:36;178.95;;;170.00;;
16862;SDS011;52193;48.216;-1.698;2023-04-12T02:03:04;175.63;;;166.55;;
16862;SDS011;52193;48.216;-1.698;2023-04-12T02:05:31;182.43;;;173.02;;
16862;SDS011;52193;48.216;-1.698;2023-04-12T02:08:00;184.00;;;174.73;;
16862;SDS011;52193;48.216;-1.698;2023-04-12T02:10:28;181.85;;;172.38;;
16862;SDS011;52193;48.216;-1.698;2023-04-12T02:12:57;177.63;;;168.55;;
16862;SDS011;52193;48.216;-1.698;2023-04-12T02:15:26;174.63;;;165.65;;
16862;SDS011;52193;48.216;-1.698;2023-04-12T02:17:53;180.80;;;171.60;;
16862;SDS011;52193;48.216;-1.698;2023-04-12T02:20:20;181.88;;;172.68;;
16862;SDS011;52193;48.216;-1.698;2023-04-12T02:22:48;184.90;;;175.57;;
16862;SDS011;52193;48.216;-1.698;2023-04-12T02:25:15;179.98;;;170.48;;
16862;SDS011;52193;48.216;-1.698;2023-04-12T02:27:42;177.00;;;168.00;;
16862;SDS011;52193;48.216;-1.698;2023-04-12T02:30:10;183.48;;;174.18;;
16862;SDS011;52193;48.216;-1.698;2023-04-12T02:32:39;182.23;;;172.98;;
16862;SDS011;52193;48.216;-1.698;2023-04-12T02:35:09;172.80;;;164.00;;
16862;SDS011;52193;48.216;-1.698;2023-04-12T02:37:36;179.25;;;170.15;;
16862;SDS011;52193;48.216;-1.698;2023-04-12T02:40:04;179.25;;;170.20;;
16862;SDS011;52193;48.216;-1.698;2023-04-12T02:42:34;178.75;;;169.75;;
16862;SDS011;52193;48.216;-1.698;2023-04-12T02:45:01;171.07;;;162.18;;
16862;SDS011;52193;48.216;-1.698;2023-04-12T02:47:28;174.65;;;165.60;;
16862;SDS011;52193;48.216;-1.698;2023-04-12T02:49:57;172.10;;;163.50;;
16862;SDS011;52193;48.216;-1.698;2023-04-12T02:52:24;171.55;;;162.82;;
16862;SDS011;52193;48.216;-1.698;2023-04-12T02:54:52;164.32;;;155.93;;
16862;SDS011;52193;48.216;-1.698;2023-04-12T02:57:19;164.73;;;156.23;;
16862;SDS011;52193;48.216;-1.698;2023-04-12T02:59:47;164.45;;;156.07;;
16862;SDS011;52193;48.216;-1.698;2023-04-12T03:02:17;160.50;;;152.15;;
16862;SDS011;52193;48.216;-1.698;2023-04-12T03:04:44;164.73;;;156.48;;
16862;SDS011;52193;48.216;-1.698;2023-04-12T03:07:16;166.13;;;157.73;;
16862;SDS011;52193;48.216;-1.698;2023-04-12T03:09:44;161.95;;;153.75;;
16862;SDS011;52193;48.216;-1.698;2023-04-12T03:12:11;166.35;;;157.82;;
16862;SDS011;52193;48.216;-1.698;2023-04-12T03:14:39;163.05;;;154.70;;
16862;SDS011;52193;48.216;-1.698;2023-04-12T03:17:06;154.30;;;146.63;;
16862;SDS011;52193;48.216;-1.698;2023-04-12T03:19:33;158.45;;;150.45;;
16862;SDS011;52193;48.216;-1.698;2023-04-12T03:22:01;161.75;;;153.52;;
16862;SDS011;52193;48.216;-1.698;2023-04-12T03:24:29;150.77;;;143.20;;
16862;SDS011;52193;48.216;-1.698;2023-04-12T03:26:59;160.70;;;152.63;;
16862;SDS011;52193;48.216;-1.698;2023-04-12T03:29:26;148.70;;;141.20;;
16862;SDS011;52193;48.216;-1.698;2023-04-12T03:31:53;158.75;;;150.88;;
16862;SDS011;52193;48.216;-1.698;2023-04-12T03:34:22;159.10;;;151.02;;
16862;SDS011;52193;48.216;-1.698;2023-04-12T03:36:49;162.48;;;154.07;;
16862;SDS011;52193;48.216;-1.698;2023-04-12T03:39:16;163.02;;;154.93;;
16862;SDS011;52193;48.216;-1.698;2023-04-12T03:41:44;177.85;;;168.85;;
16862;SDS011;52193;48.216;-1.698;2023-04-12T03:44:12;173.23;;;164.68;;
16862;SDS011;52193;48.216;-1.698;2023-04-12T03:46:38;178.55;;;169.43;;
16862;SDS011;52193;48.216;-1.698;2023-04-12T03:49:06;178.05;;;169.20;;
16862;SDS011;52193;48.216;-1.698;2023-04-12T03:51:33;185.80;;;176.38;;
16862;SDS011;52193;48.216;-1.698;2023-04-12T03:53:59;181.60;;;172.77;;
16862;SDS011;52193;48.216;-1.698;2023-04-12T03:56:28;179.00;;;170.18;;
16862;SDS011;52193;48.216;-1.698;2023-04-12T03:58:56;181.35;;;172.57;;
16862;SDS011;52193;48.216;-1.698;2023-04-12T04:01:23;175.15;;;166.55;;
16862;SDS011;52193;48.216;-1.698;2023-04-12T04:03:50;177.38;;;168.65;;
16862;SDS011;52193;48.216;-1.698;2023-04-12T04:06:17;180.57;;;171.70;;
16862;SDS011;52193;48.216;-1.698;2023-04-12T04:08:44;174.18;;;165.23;;
16862;SDS011;52193;48.216;-1.698;2023-04-12T04:11:11;177.80;;;169.13;;
16862;SDS011;52193;48.216;-1.698;2023-04-12T04:13:38;177.93;;;169.07;;
16862;SDS011;52193;48.216;-1.698;2023-04-12T04:16:07;172.35;;;163.75;;
16862;SDS011;52193;48.216;-1.698;2023-04-12T04:18:35;175.60;;;166.77;;
16862;SDS011;52193;48.216;-1.698;2023-04-12T04:21:02;171.60;;;163.07;;
16862;SDS011;52193;48.216;-1.698;2023-04-12T04:23:31;172.88;;;164.38;;
16862;SDS011;52193;48.216;-1.698;2023-04-12T04:26:02;173.25;;;164.57;;
16862;SDS011;52193;48.216;-1.698;2023-04-12T04:28:30;163.93;;;155.85;;
16862;SDS011;52193;48.216;-1.698;2023-04-12T04:30:58;166.75;;;158.48;;
16862;SDS011;52193;48.216;-1.698;2023-04-12T04:33:31;167.77;;;159.40;;
16862;SDS011;52193;48.216;-1.698;2023-04-12T04:35:58;174.05;;;165.38;;
16862;SDS011;52193;48.216;-1.698;2023-04-12T04:38:25;164.38;;;156.23;;
16862;SDS011;52193;48.216;-1.698;2023-04-12T04:40:52;170.80;;;162.43;;
16862;SDS011;52193;48.216;-1.698;2023-04-12T04:43:19;166.13;;;157.93;;
16862;SDS011;52193;48.216;-1.698;2023-04-12T04:45:46;159.02;;;151.02;;
16862;SDS011;52193;48.216;-1.698;2023-04-12T04:48:18;165.88;;;157.55;;
16862;SDS011;52193;48.216;-1.698;2023-04-12T04:50:46;162.55;;;154.60;;
16862;SDS011;52193;48.216;-1.698;2023-04-12T04:53:16;158.68;;;150.82;;
16862;SDS011;52193;48.216;-1.698;2023-04-12T04:55:44;164.30;;;156.10;;
16862;SDS011;52193;48.216;-1.698;2023-04-12T04:58:11;152.10;;;144.70;;
16862;SDS011;52193;48.216;-1.698;2023-04-12T05:00:39;157.57;;;149.57;;
16862;SDS011;52193;48.216;-1.698;2023-04-12T05:03:08;157.52;;;149.80;;
16862;SDS011;52193;48.216;-1.698;2023-04-12T05:05:35;160.02;;;152.10;;
16862;SDS011;52193;48.216;-1.698;2023-04-12T05:08:04;149.85;;;142.25;;
16862;SDS011;52193;48.216;-1.698;2023-04-12T05:10:31;155.18;;;147.32;;
16862;SDS011;52193;48.216;-1.698;2023-04-12T05:12:58;150.82;;;143.45;;
16862;SDS011;52193;48.216;-1.698;2023-04-12T05:15:25;153.15;;;145.65;;
16862;SDS011;52193;48.216;-1.698;2023-04-12T05:17:52;149.75;;;142.20;;
16862;SDS011;52193;48.216;-1.698;2023-04-12T05:20:19;151.55;;;144.15;;
16862;SDS011;52193;48.216;-1.698;2023-04-12T05:22:46;143.73;;;136.73;;
16862;SDS011;52193;48.216;-1.698;2023-04-12T05:25:14;141.57;;;134.77;;
16862;SDS011;52193;48.216;-1.698;2023-04-12T05:27:41;133.63;;;127.03;;
16862;SDS011;52193;48.216;-1.698;2023-04-12T05:30:09;137.63;;;131.02;;
16862;SDS011;52193;48.216;-1.698;2023-04-12T05:32:36;138.95;;;132.02;;
16862;SDS011;52193;48.216;-1.698;2023-04-12T05:35:04;128.15;;;121.95;;
16862;SDS011;52193;48.216;-1.698;2023-04-12T05:37:31;120.03;;;114.32;;
16862;SDS011;52193;48.216;-1.698;2023-04-12T05:39:58;122.72;;;116.72;;
16862;SDS011;52193;48.216;-1.698;2023-04-12T05:42:26;113.95;;;108.32;;
16862;SDS011;52193;48.216;-1.698;2023-04-12T05:44:53;114.95;;;109.30;;
16862;SDS011;52193;48.216;-1.698;2023-04-12T05:47:20;109.88;;;104.47;;
16862;SDS011;52193;48.216;-1.698;2023-04-12T05:49:47;104.13;;;99.03;;
16862;SDS011;52193;48.216;-1.698;2023-04-12T05:52:14;98.95;;;94.05;;
16862;SDS011;52193;48.216;-1.698;2023-04-12T05:54:41;85.97;;;81.60;;
16862;SDS011;52193;48.216;-1.698;2023-04-12T05:57:08;82.50;;;78.07;;
16862;SDS011;52193;48.216;-1.698;2023-04-12T05:59:37;88.53;;;83.95;;
16862;SDS011;52193;48.216;-1.698;2023-04-12T06:02:05;78.65;;;74.65;;
16862;SDS011;52193;48.216;-1.698;2023-04-12T06:04:33;69.97;;;66.43;;
16862;SDS011;52193;48.216;-1.698;2023-04-12T06:07:00;71.45;;;67.68;;
16862;SDS011;52193;48.216;-1.698;2023-04-12T06:09:27;70.45;;;66.75;;
16862;SDS011;52193;48.216;-1.698;2023-04-12T06:11:54;66.63;;;63.33;;
16862;SDS011;52193;48.216;-1.698;2023-04-12T06:14:21;70.22;;;66.68;;
16862;SDS011;52193;48.216;-1.698;2023-04-12T06:16:49;69.32;;;65.72;;
16862;SDS011;52193;48.216;-1.698;2023-04-12T06:19:16;67.63;;;64.03;;
16862;SDS011;52193;48.216;-1.698;2023-04-12T06:21:43;63.30;;;59.95;;
16862;SDS011;52193;48.216;-1.698;2023-04-12T06:24:10;61.47;;;58.17;;
16862;SDS011;52193;48.216;-1.698;2023-04-12T06:26:37;54.53;;;51.40;;
16862;SDS011;52193;48.216;-1.698;2023-04-12T06:29:07;57.70;;;54.75;;
16862;SDS011;52193;48.216;-1.698;2023-04-12T06:31:34;57.92;;;54.75;;
16862;SDS011;52193;48.216;-1.698;2023-04-12T06:34:02;47.55;;;45.05;;
16862;SDS011;52193;48.216;-1.698;2023-04-12T06:36:29;45.47;;;43.05;;
16862;SDS011;52193;48.216;-1.698;2023-04-12T06:38:56;49.58;;;46.85;;
16862;SDS011;52193;48.216;-1.698;2023-04-12T06:41:23;45.70;;;42.92;;
16862;SDS011;52193;48.216;-1.698;2023-04-12T06:43:50;39.75;;;37.45;;
16862;SDS011;52193;48.216;-1.698;2023-04-12T06:46:24;42.50;;;40.28;;
16862;SDS011;52193;48.216;-1.698;2023-04-12T06:48:51;43.45;;;41.15;;
16862;SDS011;52193;48.216;-1.698;2023-04-12T06:51:19;42.92;;;40.47;;
16862;SDS011;52193;48.216;-1.698;2023-04-12T06:53:46;37.20;;;35.20;;
16862;SDS011;52193;48.216;-1.698;2023-04-12T06:56:13;39.13;;;36.95;;
16862;SDS011;52193;48.216;-1.698;2023-04-12T06:58:40;36.42;;;34.45;;
16862;SDS011;52193;48.216;-1.698;2023-04-12T07:01:07;35.20;;;33.40;;
16862;SDS011;52193;48.216;-1.698;2023-04-12T07:03:35;31.95;;;30.08;;
16862;SDS011;52193;48.216;-1.698;2023-04-12T07:06:03;32.72;;;30.92;;
16862;SDS011;52193;48.216;-1.698;2023-04-12T07:08:33;30.52;;;28.63;;
16862;SDS011;52193;48.216;-1.698;2023-04-12T07:11:00;32.25;;;30.45;;
16862;SDS011;52193;48.216;-1.698;2023-04-12T07:13:28;32.70;;;30.95;;
16862;SDS011;52193;48.216;-1.698;2023-04-12T07:15:55;35.33;;;33.38;;
16862;SDS011;52193;48.216;-1.698;2023-04-12T07:18:24;32.03;;;30.42;;
16862;SDS011;52193;48.216;-1.698;2023-04-12T07:20:52;33.42;;;31.83;;
16862;SDS011;52193;48.216;-1.698;2023-04-12T07:23:20;29.55;;;27.83;;
16862;SDS011;52193;48.216;-1.698;2023-04-12T07:25:49;29.02;;;27.45;;
16862;SDS011;52193;48.216;-1.698;2023-04-12T07:28:16;26.60;;;25.20;;
16862;SDS011;52193;48.216;-1.698;2023-04-12T07:30:44;26.65;;;25.15;;
16862;SDS011;52193;48.216;-1.698;2023-04-12T07:33:11;22.33;;;21.23;;
16862;SDS011;52193;48.216;-1.698;2023-04-12T07:35:38;21.80;;;20.70;;
16862;SDS011;52193;48.216;-1.698;2023-04-12T07:38:05;21.70;;;20.60;;
16862;SDS011;52193;48.216;-1.698;2023-04-12T07:40:31;24.92;;;23.63;;
16862;SDS011;52193;48.216;-1.698;2023-04-12T07:43:00;22.73;;;21.30;;
16862;SDS011;52193;48.216;-1.698;2023-04-12T07:45:27;22.98;;;21.77;;
16862;SDS011;52193;48.216;-1.698;2023-04-12T07:47:53;21.85;;;20.58;;
16862;SDS011;52193;48.216;-1.698;2023-04-12T07:50:20;22.70;;;21.50;;
16862;SDS011;52193;48.216;-1.698;2023-04-12T07:52:47;23.08;;;21.88;;
16862;SDS011;52193;48.216;-1.698;2023-04-12T07:55:14;24.23;;;23.02;;
16862;SDS011;52193;48.216;-1.698;2023-04-12T07:57:41;25.42;;;24.13;;
16862;SDS011;52193;48.216;-1.698;2023-04-12T08:00:10;21.60;;;20.60;;
16862;SDS011;52193;48.216;-1.698;2023-04-12T08:02:37;23.90;;;22.50;;
16862;SDS011;52193;48.216;-1.698;2023-04-12T08:05:05;22.80;;;21.75;;
16862;SDS011;52193;48.216;-1.698;2023-04-12T08:07:32;21.88;;;20.67;;
16862;SDS011;52193;48.216;-1.698;2023-04-12T08:09:59;19.80;;;18.90;;
16862;SDS011;52193;48.216;-1.698;2023-04-12T08:12:26;20.42;;;19.17;;
16862;SDS011;52193;48.216;-1.698;2023-04-12T08:14:53;19.73;;;18.60;;
16862;SDS011;52193;48.216;-1.698;2023-04-12T08:17:21;19.20;;;18.20;;
16862;SDS011;52193;48.216;-1.698;2023-04-12T08:19:51;18.00;;;17.00;;
16862;SDS011;52193;48.216;-1.698;2023-04-12T08:22:18;18.77;;;17.63;;
16862;SDS011;52193;48.216;-1.698;2023-04-12T08:24:45;17.35;;;16.55;;
16862;SDS011;52193;48.216;-1.698;2023-04-12T08:27:12;15.60;;;14.70;;
16862;SDS011;52193;48.216;-1.698;2023-04-12T08:29:40;15.50;;;14.65;;
16862;SDS011;52193;48.216;-1.698;2023-04-12T08:32:07;16.02;;;15.23;;
16862;SDS011;52193;48.216;-1.698;2023-04-12T08:34:38;15.85;;;15.05;;
16862;SDS011;52193;48.216;-1.698;2023-04-12T08:37:05;16.52;;;15.50;;
16862;SDS011;52193;48.216;-1.698;2023-04-12T08:39:31;15.75;;;15.05;;
16862;SDS011;52193;48.216;-1.698;2023-04-12T08:41:59;15.32;;;14.43;;
16862;SDS011;52193;48.216;-1.698;2023-04-12T08:44:31;15.52;;;14.52;;
16862;SDS011;52193;48.216;-1.698;2023-04-12T08:47:01;14.85;;;13.95;;
16862;SDS011;52193;48.216;-1.698;2023-04-12T08:49:29;13.63;;;12.80;;
16862;SDS011;52193;48.216;-1.698;2023-04-12T08:51:58;12.57;;;11.80;;
16862;SDS011;52193;48.216;-1.698;2023-04-12T08:54:26;12.23;;;11.60;;
16862;SDS011;52193;48.216;-1.698;2023-04-12T08:56:53;11.70;;;11.10;;
16862;SDS011;52193;48.216;-1.698;2023-04-12T08:59:23;10.95;;;10.35;;
16862;SDS011;52193;48.216;-1.698;2023-04-12T09:01:52;11.00;;;10.50;;
16862;SDS011;52193;48.216;-1.698;2023-04-12T09:04:20;9.48;;;8.98;;
16862;SDS011;52193;48.216;-1.698;2023-04-12T09:06:47;8.70;;;8.13;;
16862;SDS011;52193;48.216;-1.698;2023-04-12T09:09:16;9.38;;;8.82;;
16862;SDS011;52193;48.216;-1.698;2023-04-12T09:11:43;8.63;;;8.23;;
16862;SDS011;52193;48.216;-1.698;2023-04-12T09:14:20;8.93;;;8.40;;
16862;SDS011;52193;48.216;-1.698;2023-04-12T09:16:48;8.60;;;8.00;;
16862;SDS011;52193;48.216;-1.698;2023-04-12T09:19:15;8.45;;;7.85;;
16862;SDS011;52193;48.216;-1.698;2023-04-12T09:21:55;8.40;;;7.80;;
16862;SDS011;52193;48.216;-1.698;2023-04-12T09:24:24;7.90;;;7.10;;
16862;SDS011;52193;48.216;-1.698;2023-04-12T09:27:00;6.47;;;5.97;;
16862;SDS011;52193;48.216;-1.698;2023-04-12T09:29:28;7.55;;;6.85;;
16862;SDS011;52193;48.216;-1.698;2023-04-12T09:31:56;8.23;;;7.50;;
16862;SDS011;52193;48.216;-1.698;2023-04-12T09:34:25;7.20;;;6.50;;
16862;SDS011;52193;48.216;-1.698;2023-04-12T09:36:54;7.05;;;6.60;;
16862;SDS011;52193;48.216;-1.698;2023-04-12T09:39:30;7.32;;;6.65;;
16862;SDS011;52193;48.216;-1.698;2023-04-12T09:42:04;6.72;;;6.22;;
16862;SDS011;52193;48.216;-1.698;2023-04-12T09:44:32;6.47;;;5.97;;
16862;SDS011;52193;48.216;-1.698;2023-04-12T09:46:59;5.82;;;5.38;;
16862;SDS011;52193;48.216;-1.698;2023-04-12T09:49:35;6.72;;;5.63;;
16862;SDS011;52193;48.216;-1.698;2023-04-12T09:52:04;6.38;;;5.18;;
16862;SDS011;52193;48.216;-1.698;2023-04-12T09:54:35;6.35;;;5.75;;
16862;SDS011;52193;48.216;-1.698;2023-04-12T09:57:05;6.53;;;5.22;;
16862;SDS011;52193;48.216;-1.698;2023-04-12T09:59:34;6.38;;;5.88;;
16862;SDS011;52193;48.216;-1.698;2023-04-12T10:02:03;5.97;;;5.35;;
16862;SDS011;52193;48.216;-1.698;2023-04-12T10:04:35;6.20;;;4.38;;
16862;SDS011;52193;48.216;-1.698;2023-04-12T10:07:05;7.07;;;4.85;;
16862;SDS011;52193;48.216;-1.698;2023-04-12T10:09:34;5.80;;;3.85;;
16862;SDS011;52193;48.216;-1.698;2023-04-12T10:12:05;4.35;;;2.80;;
16862;SDS011;52193;48.216;-1.698;2023-04-12T10:14:33;9.93;;;3.80;;
16862;SDS011;52193;48.216;-1.698;2023-04-12T10:17:01;7.65;;;3.50;;
16862;SDS011;52193;48.216;-1.698;2023-04-12T10:19:30;8.40;;;3.88;;
16862;SDS011;52193;48.216;-1.698;2023-04-12T10:21:58;7.68;;;3.45;;
16862;SDS011;52193;48.216;-1.698;2023-04-12T10:24:27;6.07;;;3.10;;
16862;SDS011;52193;48.216;-1.698;2023-04-12T10:26:57;5.63;;;2.90;;
16862;SDS011;52193;48.216;-1.698;2023-04-12T10:29:27;5.00;;;2.83;;
16862;SDS011;52193;48.216;-1.698;2023-04-12T10:31:55;6.57;;;3.35;;
16862;SDS011;52193;48.216;-1.698;2023-04-12T10:34:27;4.97;;;2.40;;
16862;SDS011;52193;48.216;-1.698;2023-04-12T10:36:55;5.70;;;3.33;;
16862;SDS011;52193;48.216;-1.698;2023-04-12T10:39:33;4.78;;;2.63;;
16862;SDS011;52193;48.216;-1.698;2023-04-12T10:42:20;5.53;;;2.78;;
16862;SDS011;52193;48.216;-1.698;2023-04-12T10:44:48;4.55;;;2.65;;
16862;SDS011;52193;48.216;-1.698;2023-04-12T10:47:16;5.65;;;2.70;;
16862;SDS011;52193;48.216;-1.698;2023-04-12T10:50:22;4.72;;;2.25;;
16862;SDS011;52193;48.216;-1.698;2023-04-12T10:55:50;6.30;;;2.63;;
16862;SDS011;52193;48.216;-1.698;2023-04-12T11:01:26;5.18;;;2.35;;
16862;SDS011;52193;48.216;-1.698;2023-04-12T11:04:10;6.88;;;2.30;;
16862;SDS011;52193;48.216;-1.698;2023-04-12T11:06:42;2.42;;;1.40;;
16862;SDS011;52193;48.216;-1.698;2023-04-12T11:09:20;3.22;;;2.92;;
16862;SDS011;52193;48.216;-1.698;2023-04-12T11:11:49;2.25;;;1.30;;
16862;SDS011;52193;48.216;-1.698;2023-04-12T11:14:20;2.40;;;1.88;;
16862;SDS011;52193;48.216;-1.698;2023-04-12T11:19:49;2.63;;;2.10;;
16862;SDS011;52193;48.216;-1.698;2023-04-12T11:22:19;2.17;;;1.40;;
16862;SDS011;52193;48.216;-1.698;2023-04-12T11:24:47;3.25;;;1.80;;
16862;SDS011;52193;48.216;-1.698;2023-04-12T11:27:15;2.17;;;1.75;;
16862;SDS011;52193;48.216;-1.698;2023-04-12T11:29:46;2.78;;;1.90;;
16862;SDS011;52193;48.216;-1.698;2023-04-12T11:32:14;3.65;;;1.88;;
16862;SDS011;52193;48.216;-1.698;2023-04-12T11:34:42;3.22;;;2.03;;
16862;SDS011;52193;48.216;-1.698;2023-04-12T11:37:10;3.67;;;2.33;;
16862;SDS011;52193;48.216;-1.698;2023-04-12T11:39:38;5.07;;;2.95;;
16862;SDS011;52193;48.216;-1.698;2023-04-12T11:42:06;3.47;;;1.98;;
16862;SDS011;52193;48.216;-1.698;2023-04-12T11:44:39;3.72;;;2.10;;
16862;SDS011;52193;48.216;-1.698;2023-04-12T11:47:16;4.55;;;2.20;;
16862;SDS011;52193;48.216;-1.698;2023-04-12T11:49:44;3.55;;;1.98;;
16862;SDS011;52193;48.216;-1.698;2023-04-12T11:52:13;4.43;;;2.35;;
16862;SDS011;52193;48.216;-1.698;2023-04-12T11:54:41;4.25;;;1.70;;
16862;SDS011;52193;48.216;-1.698;2023-04-12T11:57:13;3.92;;;2.45;;
16862;SDS011;52193;48.216;-1.698;2023-04-12T11:59:44;4.80;;;2.17;;
16862;SDS011;52193;48.216;-1.698;2023-04-12T12:02:12;4.68;;;2.00;;
16862;SDS011;52193;48.216;-1.698;2023-04-12T12:04:42;6.35;;;2.25;;
16862;SDS011;52193;48.216;-1.698;2023-04-12T12:07:12;3.25;;;1.90;;
16862;SDS011;52193;48.216;-1.698;2023-04-12T12:09:40;8.43;;;2.08;;
16862;SDS011;52193;48.216;-1.698;2023-04-12T12:12:09;6.10;;;1.98;;
16862;SDS011;52193;48.216;-1.698;2023-04-12T12:14:36;3.60;;;1.77;;
16862;SDS011;52193;48.216;-1.698;2023-04-12T12:17:08;4.72;;;2.28;;
16862;SDS011;52193;48.216;-1.698;2023-04-12T12:19:37;4.25;;;2.00;;
16862;SDS011;52193;48.216;-1.698;2023-04-12T12:22:15;8.20;;;2.70;;
16862;SDS011;52193;48.216;-1.698;2023-04-12T12:24:44;4.43;;;2.85;;
16862;SDS011;52193;48.216;-1.698;2023-04-12T12:27:12;4.13;;;2.70;;
16862;SDS011;52193;48.216;-1.698;2023-04-12T12:29:42;7.35;;;4.85;;
16862;SDS011;52193;48.216;-1.698;2023-04-12T12:32:10;3.75;;;2.58;;
16862;SDS011;52193;48.216;-1.698;2023-04-12T12:34:39;4.75;;;3.03;;
16862;SDS011;52193;48.216;-1.698;2023-04-12T12:37:07;3.35;;;2.10;;
16862;SDS011;52193;48.216;-1.698;2023-04-12T12:39:36;6.38;;;2.53;;
16862;SDS011;52193;48.216;-1.698;2023-04-12T12:42:04;4.55;;;3.08;;
16862;SDS011;52193;48.216;-1.698;2023-04-12T12:44:31;4.47;;;2.45;;
16862;SDS011;52193;48.216;-1.698;2023-04-12T12:46:59;4.80;;;1.92;;
16862;SDS011;52193;48.216;-1.698;2023-04-12T12:49:27;5.15;;;1.90;;
16862;SDS011;52193;48.216;-1.698;2023-04-12T12:51:54;5.45;;;2.00;;
16862;SDS011;52193;48.216;-1.698;2023-04-12T12:54:21;3.22;;;2.13;;
16862;SDS011;52193;48.216;-1.698;2023-04-12T12:56:49;5.13;;;2.15;;
16862;SDS011;52193;48.216;-1.698;2023-04-12T12:59:16;4.32;;;2.50;;
16862;SDS011;52193;48.216;-1.698;2023-04-12T13:01:43;3.58;;;2.20;;
16862;SDS011;52193;48.216;-1.698;2023-04-12T13:04:10;3.58;;;2.05;;
16862;SDS011;52193;48.216;-1.698;2023-04-12T13:06:37;3.85;;;2.28;;
16862;SDS011;52193;48.216;-1.698;2023-04-12T13:09:04;4.95;;;1.90;;
16862;SDS011;52193;48.216;-1.698;2023-04-12T13:11:31;3.20;;;1.77;;
16862;SDS011;52193;48.216;-1.698;2023-04-12T13:13:59;3.53;;;1.90;;
16862;SDS011;52193;48.216;-1.698;2023-04-12T13:16:26;4.47;;;2.25;;
16862;SDS011;52193;48.216;-1.698;2023-04-12T13:18:53;5.05;;;1.75;;
16862;SDS011;52193;48.216;-1.698;2023-04-12T13:21:20;4.88;;;1.95;;
16862;SDS011;52193;48.216;-1.698;2023-04-12T13:23:47;4.15;;;1.85;;
16862;SDS011;52193;48.216;-1.698;2023-04-12T13:26:14;3.90;;;2.00;;
16862;SDS011;52193;48.216;-1.698;2023-04-12T13:28:41;3.35;;;1.58;;
16862;SDS011;52193;48.216;-1.698;2023-04-12T13:31:10;3.08;;;1.40;;
16862;SDS011;52193;48.216;-1.698;2023-04-12T13:33:36;2.60;;;1.65;;
16862;SDS011;52193;48.216;-1.698;2023-04-12T13:36:03;4.65;;;1.45;;
16862;SDS011;52193;48.216;-1.698;2023-04-12T13:38:31;3.22;;;1.88;;
16862;SDS011;52193;48.216;-1.698;2023-04-12T13:40:58;3.80;;;1.60;;
16862;SDS011;52193;48.216;-1.698;2023-04-12T13:43:25;2.85;;;1.50;;
16862;SDS011;52193;48.216;-1.698;2023-04-12T13:45:51;2.53;;;1.60;;
16862;SDS011;52193;48.216;-1.698;2023-04-12T13:48:20;3.75;;;1.27;;
16862;SDS011;52193;48.216;-1.698;2023-04-12T13:50:47;5.22;;;1.83;;
16862;SDS011;52193;48.216;-1.698;2023-04-12T13:53:14;5.00;;;1.58;;
16862;SDS011;52193;48.216;-1.698;2023-04-12T13:55:41;5.15;;;1.48;;
16862;SDS011;52193;48.216;-1.698;2023-04-12T13:58:10;2.40;;;1.40;;
16862;SDS011;52193;48.216;-1.698;2023-04-12T14:00:37;5.22;;;1.77;;
16862;SDS011;52193;48.216;-1.698;2023-04-12T14:03:04;3.70;;;1.60;;
16862;SDS011;52193;48.216;-1.698;2023-04-12T14:05:33;2.78;;;1.50;;
16862;SDS011;52193;48.216;-1.698;2023-04-12T14:08:00;3.60;;;2.00;;
16862;SDS011;52193;48.216;-1.698;2023-04-12T14:10:27;2.20;;;1.50;;
16862;SDS011;52193;48.216;-1.698;2023-04-12T14:12:54;2.92;;;1.40;;
16862;SDS011;52193;48.216;-1.698;2023-04-12T14:15:21;2.67;;;1.70;;
16862;SDS011;52193;48.216;-1.698;2023-04-12T14:17:48;3.17;;;1.55;;
16862;SDS011;52193;48.216;-1.698;2023-04-12T14:20:15;2.83;;;1.90;;
16862;SDS011;52193;48.216;-1.698;2023-04-12T14:22:43;2.53;;;1.60;;
16862;SDS011;52193;48.216;-1.698;2023-04-12T14:25:10;3.33;;;1.60;;